createdAt,value
2023-05-10T00:01:54.172Z,3.67
2023-05-10T00:04:21.743Z,3.22
2023-05-10T00:06:49.083Z,5.32
2023-05-10T00:09:16.373Z,4.05
2023-05-10T00:11:43.613Z,3.08
2023-05-10T00:14:10.898Z,3.75
2023-05-10T00:16:38.222Z,3.90
2023-05-10T00:19:05.966Z,3.25
2023-05-10T00:21:34.963Z,3.45
2023-05-10T00:26:29.411Z,3.88
2023-05-10T00:28:57.954Z,3.42
2023-05-10T00:31:25.362Z,3.10
2023-05-10T00:33:52.946Z,2.38
2023-05-10T00:36:20.329Z,2.72
2023-05-10T00:38:47.561Z,2.65
2023-05-10T00:41:14.816Z,3.92
2023-05-10T00:43:42.530Z,5.28
2023-05-10T00:46:09.998Z,4.13
2023-05-10T00:48:37.295Z,4.70
2023-05-10T00:51:04.616Z,3.00
2023-05-10T00:53:33.801Z,2.97
2023-05-10T00:56:01.738Z,4.80
2023-05-10T00:58:29.513Z,4.68
2023-05-10T01:00:59.617Z,3.63
2023-05-10T01:03:27.313Z,3.65
2023-05-10T01:05:54.662Z,3.35
2023-05-10T01:08:22.644Z,3.28
2023-05-10T01:10:50.719Z,2.85
2023-05-10T01:13:39.112Z,5.03
2023-05-10T01:16:07.811Z,3.67
2023-05-10T01:18:42.653Z,4.35
2023-05-10T01:21:40.570Z,3.05
2023-05-10T01:24:16.717Z,3.70
2023-05-10T01:27:02.641Z,3.45
2023-05-10T01:30:21.746Z,4.40
2023-05-10T01:33:11.348Z,3.00
2023-05-10T01:35:48.611Z,4.03
2023-05-10T01:38:23.540Z,3.08
2023-05-10T01:41:17.595Z,3.92
2023-05-10T01:43:56.735Z,2.95
2023-05-10T01:46:32.277Z,3.45
2023-05-10T01:49:01.924Z,3.47
2023-05-10T01:51:38.150Z,3.65
2023-05-10T01:54:06.969Z,5.15
2023-05-10T01:56:36.631Z,6.63
2023-05-10T01:59:09.809Z,3.78
2023-05-10T02:01:38.436Z,3.90
2023-05-10T02:04:10.580Z,3.50
2023-05-10T02:06:40.361Z,5.65
2023-05-10T02:09:08.866Z,6.65
2023-05-10T02:11:38.512Z,4.45
2023-05-10T02:14:10.370Z,3.38
2023-05-10T02:16:39.813Z,4.53
2023-05-10T02:19:09.450Z,3.67
2023-05-10T02:21:38.650Z,2.95
2023-05-10T02:24:08.077Z,3.47
2023-05-10T02:26:36.930Z,3.88
2023-05-10T02:29:05.764Z,7.15
2023-05-10T02:31:34.384Z,2.95
2023-05-10T02:34:03.619Z,4.13
2023-05-10T02:39:00.295Z,4.72
2023-05-10T02:41:28.747Z,3.63
2023-05-10T02:44:00.774Z,3.70
2023-05-10T02:46:28.151Z,2.90
2023-05-10T02:48:56.905Z,4.28
2023-05-10T02:51:29.107Z,4.45
2023-05-10T02:53:57.502Z,3.05
2023-05-10T02:56:33.991Z,3.05
2023-05-10T02:59:01.632Z,5.50
2023-05-10T03:01:29.001Z,2.80
2023-05-10T03:03:56.222Z,3.47
2023-05-10T03:06:23.590Z,3.78
2023-05-10T03:08:51.150Z,3.25
2023-05-10T03:11:44.994Z,2.63
2023-05-10T03:14:26.610Z,3.55
2023-05-10T03:17:01.641Z,2.75
2023-05-10T03:19:34.174Z,4.68
2023-05-10T03:22:07.817Z,4.55
2023-05-10T03:24:37.815Z,3.22
2023-05-10T03:27:05.971Z,4.10
2023-05-10T03:29:34.033Z,2.33
2023-05-10T03:32:01.904Z,4.13
2023-05-10T03:34:32.564Z,3.63
2023-05-10T03:36:59.997Z,3.97
2023-05-10T03:39:31.296Z,4.40
2023-05-10T03:42:00.489Z,3.17
2023-05-10T03:44:27.909Z,3.20
2023-05-10T03:46:56.328Z,3.92
2023-05-10T03:49:23.994Z,3.10
2023-05-10T03:51:51.209Z,2.72
2023-05-10T03:54:18.542Z,3.10
2023-05-10T03:56:46.079Z,4.07
2023-05-10T03:59:13.473Z,2.92
2023-05-10T04:01:41.494Z,4.70
2023-05-10T04:04:10.194Z,4.47
2023-05-10T04:06:38.819Z,5.43
2023-05-10T04:09:06.344Z,3.95
2023-05-10T04:11:34.352Z,4.55
2023-05-10T04:14:08.620Z,3.58
2023-05-10T04:16:35.954Z,4.50
2023-05-10T04:19:03.769Z,3.95
2023-05-10T04:21:31.439Z,3.92
2023-05-10T04:23:58.757Z,3.35
2023-05-10T04:26:26.728Z,5.75
2023-05-10T04:28:53.966Z,3.30
2023-05-10T04:31:21.354Z,3.80
2023-05-10T04:33:48.816Z,4.45
2023-05-10T04:36:16.110Z,3.67
2023-05-10T04:38:43.700Z,3.53
2023-05-10T04:41:11.864Z,3.53
2023-05-10T04:43:39.509Z,3.38
2023-05-10T04:46:08.370Z,3.80
2023-05-10T04:51:04.846Z,3.53
2023-05-10T04:53:32.478Z,2.95
2023-05-10T04:55:59.800Z,6.78
2023-05-10T04:58:27.076Z,4.22
2023-05-10T05:00:54.376Z,4.10
2023-05-10T05:03:21.939Z,4.38
2023-05-10T05:05:49.558Z,3.55
2023-05-10T05:08:16.819Z,4.07
2023-05-10T05:10:44.215Z,3.75
2023-05-10T05:13:13.258Z,3.58
2023-05-10T05:15:40.797Z,4.57
2023-05-10T05:18:08.273Z,3.75
2023-05-10T05:20:35.712Z,3.38
2023-05-10T05:23:03.372Z,3.28
2023-05-10T05:25:31.733Z,5.07
2023-05-10T05:27:58.956Z,4.85
2023-05-10T05:30:26.261Z,3.80
2023-05-10T05:32:53.616Z,5.53
2023-05-10T05:35:21.002Z,4.57
2023-05-10T05:37:48.225Z,3.25
2023-05-10T05:40:15.690Z,4.88
2023-05-10T05:42:43.521Z,3.05
2023-05-10T05:45:14.226Z,4.00
2023-05-10T05:47:59.844Z,2.75
2023-05-10T05:50:28.110Z,3.45
2023-05-10T05:52:55.863Z,3.42
2023-05-10T05:55:25.320Z,2.42
2023-05-10T05:57:53.468Z,4.00
2023-05-10T06:00:25.227Z,3.10
2023-05-10T06:02:53.708Z,2.40
2023-05-10T06:05:22.140Z,3.08
2023-05-10T06:07:54.326Z,4.35
2023-05-10T06:10:23.910Z,5.55
2023-05-10T06:12:54.007Z,6.47
2023-05-10T06:15:22.303Z,4.68
2023-05-10T06:17:54.280Z,4.03
2023-05-10T06:20:22.597Z,4.50
2023-05-10T06:22:49.916Z,3.47
2023-05-10T06:25:19.160Z,4.28
2023-05-10T06:27:50.416Z,5.05
2023-05-10T06:30:28.169Z,5.25
2023-05-10T06:32:55.891Z,5.80
2023-05-10T06:35:23.296Z,4.88
2023-05-10T06:37:51.235Z,5.85
2023-05-10T06:40:19.114Z,6.47
2023-05-10T06:42:47.320Z,3.78
2023-05-10T06:45:16.306Z,3.15
2023-05-10T06:47:43.983Z,3.35
2023-05-10T06:50:12.453Z,3.33
2023-05-10T06:52:40.476Z,4.68
2023-05-10T06:55:08.329Z,4.72
2023-05-10T06:57:36.049Z,2.92
2023-05-10T07:00:05.740Z,5.38
2023-05-10T07:02:33.653Z,4.55
2023-05-10T07:05:03.124Z,5.35
2023-05-10T07:07:30.756Z,4.30
2023-05-10T07:09:58.649Z,4.90
2023-05-10T07:12:26.313Z,3.53
2023-05-10T07:14:53.709Z,4.30
2023-05-10T07:17:21.167Z,3.83
2023-05-10T07:19:48.516Z,5.05
2023-05-10T07:22:17.615Z,4.18
2023-05-10T07:24:45.018Z,7.25
2023-05-10T07:27:12.362Z,3.65
2023-05-10T07:29:39.741Z,4.13
2023-05-10T07:32:07.192Z,5.20
2023-05-10T07:34:34.498Z,4.30
2023-05-10T07:37:01.941Z,4.45
2023-05-10T07:39:29.321Z,3.75
2023-05-10T07:41:56.935Z,5.10
2023-05-10T07:44:24.258Z,4.28
2023-05-10T07:46:51.565Z,6.40
2023-05-10T07:49:18.974Z,5.65
2023-05-10T07:51:46.285Z,5.05
2023-05-10T07:54:13.761Z,3.85
2023-05-10T07:56:45.770Z,4.78
2023-05-10T07:59:16.587Z,3.63
2023-05-10T08:01:44.268Z,5.03
2023-05-10T08:04:12.503Z,5.32
2023-05-10T08:06:40.749Z,5.03
2023-05-10T08:09:08.379Z,4.18
2023-05-10T08:11:36.200Z,6.55
2023-05-10T08:14:03.521Z,5.18
2023-05-10T08:16:30.954Z,5.88
2023-05-10T08:18:58.348Z,3.22
2023-05-10T08:21:25.628Z,5.22
2023-05-10T08:23:52.868Z,5.93
2023-05-10T08:26:20.101Z,5.35
2023-05-10T08:28:47.299Z,7.95
2023-05-10T08:31:14.573Z,5.47
2023-05-10T08:33:43.095Z,3.47
2023-05-10T08:36:12.088Z,4.93
2023-05-10T08:38:39.324Z,5.03
2023-05-10T08:41:07.394Z,4.90
2023-05-10T08:43:37.454Z,4.72
2023-05-10T08:46:06.483Z,5.32
2023-05-10T08:48:35.747Z,3.88
2023-05-10T08:51:04.586Z,4.47
2023-05-10T08:53:33.527Z,7.00
2023-05-10T08:56:02.573Z,3.80
2023-05-10T08:58:29.828Z,4.68
2023-05-10T09:00:57.745Z,4.93
2023-05-10T09:03:24.968Z,7.65
2023-05-10T09:05:52.459Z,6.47
2023-05-10T09:08:20.907Z,4.30
2023-05-10T09:10:49.265Z,5.38
2023-05-10T09:13:17.165Z,4.10
2023-05-10T09:15:45.845Z,5.00
2023-05-10T09:18:14.006Z,4.13
2023-05-10T09:20:41.927Z,6.15
2023-05-10T09:23:09.674Z,5.05
2023-05-10T09:25:38.111Z,4.68
2023-05-10T09:28:09.882Z,6.47
2023-05-10T09:30:37.220Z,3.97
2023-05-10T09:33:04.905Z,4.28
2023-05-10T09:35:34.385Z,5.03
2023-05-10T09:38:05.142Z,5.25
2023-05-10T09:40:32.906Z,6.60
2023-05-10T09:43:02.866Z,6.78
2023-05-10T09:45:32.091Z,5.57
2023-05-10T09:48:00.391Z,4.43
2023-05-10T09:50:28.320Z,4.22
2023-05-10T09:53:01.250Z,6.97
2023-05-10T09:55:41.842Z,6.72
2023-05-10T09:58:12.473Z,5.10
2023-05-10T10:00:44.654Z,5.57
2023-05-10T10:03:19.988Z,6.15
2023-05-10T10:05:48.726Z,4.55
2023-05-10T10:10:47.388Z,6.70
2023-05-10T10:13:15.118Z,7.55
2023-05-10T10:15:44.599Z,4.78
2023-05-10T10:18:16.515Z,6.13
2023-05-10T10:20:44.093Z,4.70
2023-05-10T10:23:11.350Z,6.40
2023-05-10T10:25:39.553Z,6.18
2023-05-10T10:28:26.195Z,5.13
2023-05-10T10:30:57.234Z,9.80
2023-05-10T10:33:57.969Z,5.25
2023-05-10T10:36:27.966Z,5.35
2023-05-10T10:39:00.159Z,7.05
2023-05-10T10:41:45.427Z,4.60
2023-05-10T10:44:39.389Z,5.68
2023-05-10T10:47:13.299Z,5.68
2023-05-10T10:49:49.884Z,6.15
2023-05-10T10:52:41.198Z,5.40
2023-05-10T10:55:19.998Z,5.03
2023-05-10T10:57:53.190Z,8.77
2023-05-10T11:00:34.453Z,7.97
2023-05-10T11:03:11.643Z,9.43
2023-05-10T11:05:43.860Z,8.23
2023-05-10T11:08:18.692Z,7.28
2023-05-10T11:13:35.501Z,6.45
2023-05-10T11:16:24.387Z,8.73
2023-05-10T11:19:04.995Z,7.47
2023-05-10T11:21:33.675Z,8.15
2023-05-10T11:24:06.485Z,7.13
2023-05-10T11:26:36.022Z,7.43
2023-05-10T11:29:05.537Z,6.90
2023-05-10T11:31:32.868Z,5.63
2023-05-10T11:34:04.303Z,5.82
2023-05-10T11:36:36.729Z,7.20
2023-05-10T11:39:05.117Z,6.00
2023-05-10T11:41:32.759Z,7.93
2023-05-10T11:44:00.351Z,9.70
2023-05-10T11:46:29.568Z,6.03
2023-05-10T11:49:02.668Z,5.63
2023-05-10T11:51:30.207Z,7.32
2023-05-10T11:53:58.182Z,5.30
2023-05-10T11:56:27.267Z,6.15
2023-05-10T11:58:58.733Z,7.88
2023-05-10T12:01:27.721Z,6.55
2023-05-10T12:03:59.587Z,6.03
2023-05-10T12:06:30.000Z,4.68
2023-05-10T12:08:57.817Z,5.88
2023-05-10T12:11:29.513Z,4.82
2023-05-10T12:13:57.682Z,4.60
2023-05-10T12:16:30.741Z,4.30
2023-05-10T12:19:00.837Z,3.10
2023-05-10T12:21:31.364Z,3.72
2023-05-10T12:24:06.338Z,3.75
2023-05-10T12:26:33.709Z,4.03
2023-05-10T12:29:17.968Z,2.95
2023-05-10T12:31:56.584Z,1.83
2023-05-10T12:34:34.378Z,2.08
2023-05-10T12:37:02.529Z,1.40
2023-05-10T12:39:46.959Z,2.03
2023-05-10T12:42:14.248Z,1.70
2023-05-10T12:44:41.495Z,0.95
2023-05-10T12:47:08.779Z,1.17
2023-05-10T12:49:36.331Z,1.05
2023-05-10T12:52:03.730Z,1.60
2023-05-10T12:54:31.004Z,1.02
2023-05-10T12:56:58.326Z,1.25
2023-05-10T12:59:25.680Z,1.55
2023-05-10T13:01:53.275Z,2.05
2023-05-10T13:04:20.722Z,2.53
2023-05-10T13:06:48.030Z,1.98
2023-05-10T13:09:16.036Z,1.73
2023-05-10T13:11:43.372Z,1.63
2023-05-10T13:14:10.856Z,2.03
2023-05-10T13:16:38.071Z,1.50
2023-05-10T13:19:05.473Z,1.55
2023-05-10T13:21:32.793Z,1.88
2023-05-10T13:24:01.054Z,1.88
2023-05-10T13:26:29.033Z,2.72
2023-05-10T13:28:56.725Z,2.67
2023-05-10T13:31:24.184Z,2.72
2023-05-10T13:33:51.614Z,2.08
2023-05-10T13:36:18.917Z,2.15
2023-05-10T13:38:46.566Z,2.75
2023-05-10T13:41:13.870Z,2.42
2023-05-10T13:43:41.135Z,3.58
2023-05-10T13:46:08.454Z,4.00
2023-05-10T13:48:38.985Z,2.65
2023-05-10T13:51:06.545Z,2.22
2023-05-10T13:53:34.238Z,3.38
2023-05-10T13:56:01.468Z,4.53
2023-05-10T13:58:28.703Z,4.22
2023-05-10T14:00:56.847Z,4.35
2023-05-10T14:03:24.149Z,5.90
2023-05-10T14:05:51.592Z,5.40
2023-05-10T14:08:18.889Z,5.25
2023-05-10T14:10:46.124Z,5.38
2023-05-10T14:13:13.455Z,5.45
2023-05-10T14:15:40.716Z,5.82
2023-05-10T14:18:08.038Z,5.70
2023-05-10T14:20:35.446Z,5.07
2023-05-10T14:23:02.664Z,6.38
2023-05-10T14:25:29.916Z,7.70
2023-05-10T14:27:57.169Z,5.47
2023-05-10T14:30:24.444Z,5.10
2023-05-10T14:32:51.694Z,5.07
2023-05-10T14:35:19.909Z,5.50
2023-05-10T14:37:47.632Z,5.47
2023-05-10T14:40:16.054Z,5.65
2023-05-10T14:42:43.870Z,5.65
2023-05-10T14:45:12.302Z,5.43
2023-05-10T14:47:40.165Z,5.50
2023-05-10T14:50:08.045Z,5.75
2023-05-10T14:52:35.870Z,6.13
2023-05-10T14:55:03.539Z,5.10
2023-05-10T14:57:31.001Z,4.95
2023-05-10T14:59:58.259Z,5.70
2023-05-10T15:02:26.116Z,4.68
2023-05-10T15:04:53.702Z,5.80
2023-05-10T15:07:21.512Z,5.03
2023-05-10T15:09:48.750Z,5.25
2023-05-10T15:12:15.953Z,5.05
2023-05-10T15:14:43.176Z,4.05
2023-05-10T15:17:11.054Z,4.22
2023-05-10T15:19:38.303Z,4.35
2023-05-10T15:22:06.025Z,4.00
2023-05-10T15:24:33.280Z,3.60
2023-05-10T15:27:01.051Z,3.80
2023-05-10T15:29:28.319Z,3.40
2023-05-10T15:31:55.683Z,4.38
2023-05-10T15:34:23.119Z,3.70
2023-05-10T15:36:50.332Z,3.33
2023-05-10T15:39:17.544Z,2.80
2023-05-10T15:41:44.813Z,2.92
2023-05-10T15:44:12.134Z,2.35
2023-05-10T15:46:39.503Z,2.90
2023-05-10T15:49:07.510Z,3.22
2023-05-10T15:51:36.653Z,2.20
2023-05-10T15:54:07.523Z,3.17
2023-05-10T15:56:35.898Z,2.33
2023-05-10T15:59:03.761Z,2.63
2023-05-10T16:01:32.437Z,1.98
2023-05-10T16:04:00.728Z,2.15
2023-05-10T16:06:28.097Z,2.40
2023-05-10T16:08:55.394Z,2.38
2023-05-10T16:11:22.781Z,2.33
2023-05-10T16:13:50.052Z,1.90
2023-05-10T16:16:17.396Z,3.17
2023-05-10T16:18:44.871Z,2.10
2023-05-10T16:21:12.224Z,2.25
2023-05-10T16:23:40.115Z,1.98
2023-05-10T16:26:07.484Z,1.80
2023-05-10T16:28:35.191Z,2.08
2023-05-10T16:31:02.527Z,1.75
2023-05-10T16:33:29.874Z,2.08
2023-05-10T16:35:57.204Z,1.65
2023-05-10T16:38:24.549Z,1.52
2023-05-10T16:40:51.773Z,2.58
2023-05-10T16:43:19.249Z,1.63
2023-05-10T16:45:46.486Z,1.58
2023-05-10T16:48:13.738Z,1.50
2023-05-10T16:50:44.349Z,1.77
2023-05-10T16:53:11.777Z,1.70
2023-05-10T16:55:39.138Z,1.45
2023-05-10T16:58:06.750Z,1.33
2023-05-10T17:00:34.243Z,2.08
2023-05-10T17:03:01.971Z,1.58
2023-05-10T17:05:29.634Z,2.20
2023-05-10T17:07:56.925Z,3.03
2023-05-10T17:10:24.158Z,1.17
2023-05-10T17:12:51.493Z,1.60
2023-05-10T17:15:19.430Z,1.65
2023-05-10T17:17:47.732Z,1.17
2023-05-10T17:20:15.008Z,1.02
2023-05-10T17:22:42.249Z,1.17
2023-05-10T17:25:09.642Z,3.05
2023-05-10T17:27:37.053Z,2.20
2023-05-10T17:30:06.961Z,1.23
2023-05-10T17:32:34.200Z,1.10
2023-05-10T17:35:02.718Z,1.30
2023-05-10T17:37:30.089Z,1.95
2023-05-10T17:39:57.360Z,1.70
2023-05-10T17:42:24.707Z,2.22
2023-05-10T17:44:51.925Z,1.95
2023-05-10T17:47:19.504Z,1.80
2023-05-10T17:49:46.846Z,1.25
2023-05-10T17:52:14.055Z,1.92
2023-05-10T17:54:42.342Z,1.75
2023-05-10T17:57:09.586Z,1.70
2023-05-10T17:59:36.831Z,2.20
2023-05-10T18:02:04.086Z,2.42
2023-05-10T18:04:31.545Z,3.83
2023-05-10T18:07:01.935Z,2.50
2023-05-10T18:09:29.350Z,3.80
2023-05-10T18:11:56.647Z,2.88
2023-05-10T18:14:36.553Z,2.40
2023-05-10T18:17:13.304Z,2.50
2023-05-10T18:19:40.698Z,2.20
2023-05-10T18:22:10.711Z,2.00
2023-05-10T18:24:40.292Z,3.63
2023-05-10T18:27:11.294Z,3.30
2023-05-10T18:29:39.034Z,2.15
2023-05-10T18:32:06.687Z,3.22
2023-05-10T18:34:34.464Z,2.92
2023-05-10T18:37:07.041Z,2.20
2023-05-10T18:39:34.348Z,2.30
2023-05-10T18:42:01.952Z,2.67
2023-05-10T18:44:29.348Z,2.65
2023-05-10T18:46:56.650Z,2.67
2023-05-10T18:49:24.352Z,2.15
2023-05-10T18:51:51.611Z,2.47
2023-05-10T18:54:18.930Z,2.42
2023-05-10T18:56:46.697Z,2.08
2023-05-10T18:59:14.328Z,1.58
2023-05-10T19:01:41.766Z,1.85
2023-05-10T19:04:09.171Z,2.08
2023-05-10T19:06:36.602Z,2.10
2023-05-10T19:09:04.182Z,1.90
2023-05-10T19:11:33.990Z,2.75
2023-05-10T19:14:01.765Z,3.15
2023-05-10T19:16:30.204Z,2.78
2023-05-10T19:18:57.685Z,3.83
2023-05-10T19:21:25.303Z,2.97
2023-05-10T19:23:53.636Z,3.50
2023-05-10T19:26:21.053Z,3.13
2023-05-10T19:28:50.762Z,2.75
2023-05-10T19:31:18.733Z,3.08
2023-05-10T19:33:46.904Z,2.00
2023-05-10T19:36:14.237Z,2.67
2023-05-10T19:38:41.625Z,3.05
2023-05-10T19:41:08.909Z,3.05
2023-05-10T19:43:38.334Z,2.33
2023-05-10T19:46:05.792Z,1.90
2023-05-10T19:48:33.036Z,3.13
2023-05-10T19:51:02.005Z,3.50
2023-05-10T19:53:31.165Z,1.63
2023-05-10T19:56:06.438Z,2.58
2023-05-10T19:58:35.007Z,1.40
2023-05-10T20:01:03.689Z,2.55
2023-05-10T20:03:33.612Z,1.98
2023-05-10T20:06:01.699Z,2.22
2023-05-10T20:08:29.222Z,2.25
2023-05-10T20:10:58.993Z,3.33
2023-05-10T20:13:26.348Z,2.97
2023-05-10T20:15:58.098Z,2.17
2023-05-10T20:18:28.795Z,2.33
2023-05-10T20:20:58.575Z,2.60
2023-05-10T20:23:26.336Z,3.88
2023-05-10T20:25:54.649Z,2.38
2023-05-10T20:28:23.795Z,2.83
2023-05-10T20:30:53.391Z,5.25
2023-05-10T20:33:22.059Z,3.10
2023-05-10T20:35:51.228Z,3.40
2023-05-10T20:38:18.969Z,2.67
2023-05-10T20:40:48.111Z,3.50
2023-05-10T20:43:19.549Z,1.75
2023-05-10T20:45:50.007Z,3.95
2023-05-10T20:48:22.476Z,2.22
2023-05-10T20:50:55.078Z,2.03
2023-05-10T20:53:22.474Z,3.05
2023-05-10T20:55:49.707Z,2.65
2023-05-10T20:58:18.011Z,3.95
2023-05-10T21:03:18.549Z,4.38
2023-05-10T21:05:47.165Z,2.97
2023-05-10T21:08:14.892Z,3.00
2023-05-10T21:10:43.550Z,2.90
2023-05-10T21:13:11.284Z,2.95
2023-05-10T21:15:40.218Z,2.50
2023-05-10T21:18:08.169Z,2.88
2023-05-10T21:20:36.052Z,2.67
2023-05-10T21:23:07.254Z,2.90
2023-05-10T21:25:38.934Z,2.45
2023-05-10T21:28:07.744Z,3.13
2023-05-10T21:30:36.116Z,1.83
2023-05-10T21:33:06.321Z,3.58
2023-05-10T21:35:33.637Z,3.72
2023-05-10T21:38:00.941Z,4.78
2023-05-10T21:40:29.058Z,2.95
2023-05-10T21:42:58.073Z,2.72
2023-05-10T21:45:33.461Z,2.20
2023-05-10T21:48:00.925Z,3.00
2023-05-10T21:50:29.127Z,3.00
2023-05-10T21:52:56.797Z,3.13
2023-05-10T21:55:25.299Z,3.00
2023-05-10T21:57:58.026Z,3.75
2023-05-10T22:00:26.023Z,3.22
2023-05-10T22:02:53.544Z,2.53
2023-05-10T22:05:22.367Z,3.95
2023-05-10T22:07:50.315Z,3.13
2023-05-10T22:10:20.674Z,2.88
2023-05-10T22:12:48.780Z,3.08
2023-05-10T22:15:17.276Z,3.60
2023-05-10T22:17:45.604Z,4.93
2023-05-10T22:20:19.635Z,3.25
2023-05-10T22:22:47.373Z,4.20
2023-05-10T22:25:14.976Z,3.05
2023-05-10T22:27:42.891Z,3.15
2023-05-10T22:30:10.775Z,3.83
2023-05-10T22:32:38.217Z,4.05
2023-05-10T22:35:06.016Z,4.45
2023-05-10T22:37:33.317Z,3.60
2023-05-10T22:40:00.629Z,4.28
2023-05-10T22:42:27.907Z,4.00
2023-05-10T22:44:56.845Z,4.05
2023-05-10T22:47:25.121Z,4.43
2023-05-10T22:49:52.375Z,4.10
2023-05-10T22:52:19.663Z,4.22
2023-05-10T22:54:46.908Z,5.22
2023-05-10T22:57:14.422Z,3.97
2023-05-10T22:59:42.353Z,5.53
2023-05-10T23:02:10.174Z,7.38
2023-05-10T23:04:37.472Z,6.10
2023-05-10T23:07:04.887Z,6.38
2023-05-10T23:09:32.495Z,4.20
2023-05-10T23:11:59.748Z,3.53
2023-05-10T23:14:27.355Z,3.72
2023-05-10T23:16:54.813Z,2.40
2023-05-10T23:19:22.176Z,5.20
2023-05-10T23:21:49.494Z,3.65
2023-05-10T23:24:16.836Z,4.28
2023-05-10T23:26:46.727Z,2.92
2023-05-10T23:29:14.782Z,3.72
2023-05-10T23:31:45.671Z,4.28
2023-05-10T23:34:13.355Z,4.07
2023-05-10T23:36:40.677Z,3.53
2023-05-10T23:39:08.211Z,3.13
2023-05-10T23:41:35.454Z,3.05
2023-05-10T23:44:02.981Z,4.15
2023-05-10T23:46:34.415Z,4.20
2023-05-10T23:49:01.690Z,3.70
2023-05-10T23:51:28.926Z,4.97
2023-05-10T23:53:56.137Z,4.13
2023-05-10T23:56:23.423Z,3.90
2023-05-10T23:58:50.725Z,4.50
